Thunder radar more information blitzortung!


Radar de pluja more information rain snow radar


Visita la nostra xarxa de llocs de meteo:

Template documentation
and downloads

And another site



No particular awareness of the weather is required.    There are no Weather-warnings

Pagina Historial Weather Underground text

Diari Resum Agost 11, 2017 Unitats:  Mètric    Imperial   Tant
« Previous Dia
SegĂźent Dia »
Diari Setmana Mensual Anual Personalitzada
  Maxima: Minima: Media:
Temperatura: -17.8 °C -9.3 °C -5.6 °C
Punt de rosada: -17.8 °C -14.7 °C -11.4 °C
Humitat: Humidity % 32 % 52 %
Wind Speed: 0 km/h 0 km/h 11.4 km/h
RĂ fegues de vent: 0 km/h - -
Vent:- - ESE
Pression baro: 0 hPa 34462.7 hPa -
Precipitacions: 0 mm    
Historical Graphs
 
 
Dades de taula per Agost 11, 2017
Temps Temperatura Punt de rosada Pression baro Vent Wind Speed RĂ fegues de vent Humitat Rainfall Rate (Hourly)
-17.8 °C -17.8 °C 0 hPa Calm     Humidity % 0 mm
00:00 -5.9 °C -11.9 °C 34496.6 hPa WSW 3.7 km/h 3.7 km/h 50 % 0 mm
00:05 -5.9 °C -12.1 °C 34496.6 hPa WSW 9 km/h 9 km/h 49 % 0 mm
00:10 -5.9 °C -12.1 °C 34496.6 hPa NW 9 km/h 9 km/h 49 % 0 mm
00:15 -5.9 °C -12.3 °C 34496.6 hPa North 6 km/h 6 km/h 48 % 0 mm
00:20 -5.9 °C -12.3 °C 34496.6 hPa ENE 6 km/h 6 km/h 48 % 0 mm
00:25 -6 °C -12.6 °C 34496.6 hPa NNE 8 km/h 8 km/h 47 % 0 mm
00:30 -6 °C -12.6 °C 34496.6 hPa East 6 km/h 6 km/h 47 % 0 mm
00:35 -6.1 °C -12.6 °C 34496.6 hPa ENE 6 km/h 6 km/h 47 % 0 mm
00:40 -6.2 °C -12.5 °C 34496.6 hPa ENE 4.2 km/h 4.2 km/h 48 % 0 mm
00:45 -6.2 °C -12.6 °C 34496.6 hPa East 3.1 km/h   48 % 0 mm
00:50 -6.3 °C -12.6 °C 34496.6 hPa West 6 km/h 6 km/h 48 % 0 mm
00:55 -6.3 °C -12.7 °C 34496.6 hPa West 3.1 km/h   48 % 0 mm
01:00 -6.4 °C -12.7 °C 34496.6 hPa West 9 km/h 9 km/h 48 % 0 mm
01:05 -6.4 °C -12.8 °C 34496.6 hPa West 15 km/h 15 km/h 48 % 0 mm
01:10 -6.5 °C -13 °C 34496.6 hPa WSW 11.9 km/h 11.9 km/h 47 % 0 mm
01:15 -6.6 °C -13.1 °C 34496.6 hPa NE 6 km/h 6 km/h 47 % 0 mm
01:20 -6.6 °C -13.1 °C 34496.6 hPa NNE 3.7 km/h   47 % 0 mm
01:25 -6.7 °C -13.2 °C 34496.6 hPa Calm     47 % 0 mm
01:30 -6.8 °C -13.1 °C 34496.6 hPa WSW 9 km/h 9 km/h 48 % 0 mm
01:40 -9.2 °C -14.7 °C 34496.6 hPa West 5.1 km/h 7.7 km/h 52 % 0 mm
01:50 -9.3 °C -14.6 °C 34496.6 hPa WNW 2.6 km/h 10.3 km/h 53 % 0 mm
02:00 -9.3 °C -14.6 °C 34496.6 hPa West 2.6 km/h 7.7 km/h 53 % 0 mm
02:10 -9.3 °C -14.4 °C 34496.6 hPa NNE 2.6 km/h 10.3 km/h 54 % 0 mm
02:20 -9.3 °C -14.4 °C 34533.8 hPa NE 2.6 km/h 5.1 km/h 54 % 0 mm
02:30 -9.2 °C -14.4 °C 34533.8 hPa NNW 2.6 km/h 7.7 km/h 54 % 0 mm
02:40 -9 °C -14.2 °C 34533.8 hPa WNW 2.6 km/h 5.1 km/h 54 % 0 mm
02:50 -9.1 °C -14.1 °C 34533.8 hPa WSW 2.6 km/h 7.7 km/h 55 % 0 mm
03:10 -8.9 °C -13.9 °C 34533.8 hPa West 2.6 km/h 5.1 km/h 55 % 0 mm
03:20 -8.4 °C -13.5 °C 34496.6 hPa North 7.7 km/h 12.9 km/h 55 % 0 mm
03:30 -8.2 °C -13.4 °C 34496.6 hPa North 5.1 km/h 7.7 km/h 54 % 0 mm
03:40 -8.3 °C -13.7 °C 34533.8 hPa NE 2.6 km/h 10.3 km/h 53 % 0 mm
03:50 -8.2 °C -13.6 °C 34533.8 hPa NE 7.7 km/h 12.9 km/h 53 % 0 mm
04:00 -7.9 °C -13.3 °C 34533.8 hPa NE 2.6 km/h 10.3 km/h 53 % 0 mm
04:10 -7.7 °C -13.1 °C 34533.8 hPa NE 2.6 km/h 10.3 km/h 53 % 0 mm
04:20 -7.5 °C -12.9 °C 34533.8 hPa NE 2.6 km/h 7.7 km/h 53 % 0 mm
04:30 -7.4 °C -13 °C 34533.8 hPa ENE 7.7 km/h 10.3 km/h 52 % 0 mm
04:40 -7.3 °C -12.9 °C 34533.8 hPa NE 2.6 km/h 7.7 km/h 52 % 0 mm
04:50 -7.2 °C -12.9 °C 34533.8 hPa NNE 5.1 km/h 7.7 km/h 51 % 0 mm
05:00 -6.9 °C -12.9 °C 34533.8 hPa NNE 2.6 km/h 7.7 km/h 50 % 0 mm
05:10 -7.1 °C -13.1 °C 34533.8 hPa NNE 7.7 km/h 12.9 km/h 50 % 0 mm
05:20 -6.9 °C -12.8 °C 34496.6 hPa NE 7.7 km/h 10.3 km/h 50 % 0 mm
05:30 -6.7 °C -12.7 °C 34496.6 hPa ENE 7.7 km/h 10.3 km/h 50 % 0 mm
10:34 -6.3 °C -12.3 °C 34533.8 hPa ENE 9 km/h 9 km/h 50 % 0 mm
10:35 -6.3 °C -12.3 °C 34533.8 hPa ENE 9 km/h 9 km/h 50 % 0 mm
10:40 -6.3 °C -12.3 °C 34533.8 hPa SE 6.3 km/h 6.3 km/h 50 % 0 mm
10:45 -6.1 °C -12.3 °C 34533.8 hPa ENE 12.7 km/h 12.7 km/h 49 % 0 mm
10:50 -6 °C -12.2 °C 34533.8 hPa WNW 7.6 km/h 7.6 km/h 49 % 0 mm
10:55 -5.8 °C -12.2 °C 34533.8 hPa ENE 6.3 km/h 6.3 km/h 48 % 0 mm
11:00 -6.1 °C -12.4 °C 34533.8 hPa ESE 6.3 km/h 6.3 km/h 48 % 0 mm
11:05 -6.2 °C -12.3 °C 34533.8 hPa ENE 20.9 km/h 20.9 km/h 49 % 0 mm
11:10 -6.1 °C -12.4 °C 34533.8 hPa ESE 11.9 km/h 11.9 km/h 48 % 0 mm
11:15 -5.7 °C -12.1 °C 34496.6 hPa ENE 7.6 km/h 7.6 km/h 48 % 0 mm
11:20 -6.1 °C -12.6 °C 34496.6 hPa ESE 15 km/h 15 km/h 47 % 0 mm
11:25 -5.8 °C -12.2 °C 34496.6 hPa ESE 11.9 km/h 11.9 km/h 48 % 0 mm
11:30 -5.4 °C -12.1 °C 34533.8 hPa South 9 km/h 9 km/h 47 % 0 mm
11:35 -5.1 °C -11.7 °C 34533.8 hPa SSE 9 km/h 9 km/h 47 % 0 mm
11:40 -5.2 °C -12.2 °C 34533.8 hPa SSE 15 km/h 15 km/h 45 % 0 mm
11:45 -5.3 °C -12.1 °C 34533.8 hPa NE 6 km/h 6 km/h 46 % 0 mm
11:50 -5.4 °C -12.3 °C 34533.8 hPa East 11.1 km/h 11.1 km/h 45 % 0 mm
11:55 -5.3 °C -12.3 °C 34533.8 hPa ENE 11.9 km/h 11.9 km/h 45 % 0 mm
12:00 -4.9 °C -11.9 °C 34533.8 hPa West 9 km/h 9 km/h 45 % 0 mm
12:05 -4.9 °C -12.1 °C 34533.8 hPa ESE 11.9 km/h 11.9 km/h 44 % 0 mm
12:10 -4.9 °C -12.1 °C 34533.8 hPa NNW 6 km/h 6 km/h 44 % 0 mm
12:15 -4.6 °C -11.8 °C 34533.8 hPa ENE 6 km/h 6 km/h 44 % 0 mm
12:20 -4.4 °C -12.1 °C 34533.8 hPa South 10.3 km/h 10.3 km/h 42 % 0 mm
12:25 -4.4 °C -12.1 °C 34533.8 hPa SSE 15 km/h 15 km/h 42 % 0 mm
12:30 -4.4 °C -11.8 °C 34496.6 hPa SW 11.9 km/h 11.9 km/h 43 % 0 mm
12:35 -4.3 °C -11.9 °C 34496.6 hPa SW 11.9 km/h 11.9 km/h 42 % 0 mm
12:40 -4.6 °C -12.2 °C 34496.6 hPa WNW 11.9 km/h 11.9 km/h 42 % 0 mm
12:45 -4.3 °C -12.1 °C 34533.8 hPa WSW 7.6 km/h 7.6 km/h 41 % 0 mm
12:50 -4.1 °C -12 °C 34533.8 hPa NW 9 km/h 9 km/h 41 % 0 mm
12:55 -4.1 °C -12 °C 34533.8 hPa SSW 3.1 km/h   41 % 0 mm
13:00 -3.5 °C -11.6 °C 34533.8 hPa SW 9.3 km/h 9.3 km/h 40 % 0 mm
13:05 -3.3 °C -11.4 °C 34533.8 hPa South 11.9 km/h 11.9 km/h 40 % 0 mm
13:10 -3 °C -11.6 °C 34533.8 hPa South 17.9 km/h 17.9 km/h 38 % 0 mm
13:15 -3.1 °C -11.7 °C 34533.8 hPa SSE 9 km/h 9 km/h 38 % 0 mm
13:20 -3.1 °C -11.7 °C 34533.8 hPa SSE 9 km/h 9 km/h 38 % 0 mm
13:25 -3.1 °C -11.9 °C 34533.8 hPa East 8.5 km/h 8.5 km/h 37 % 0 mm
13:30 -2.8 °C -11.8 °C 34496.6 hPa SSW 15 km/h 15 km/h 36 % 0 mm
13:35 -3.3 °C -12.8 °C 34496.6 hPa SW 15 km/h 15 km/h 34 % 0 mm
13:40 -3.2 °C -12.7 °C 34496.6 hPa ESE 15.3 km/h 15.3 km/h 34 % 0 mm
13:45 -2.9 °C -12.3 °C 34496.6 hPa SE 9 km/h 9 km/h 35 % 0 mm
13:50 -2.9 °C -12.9 °C 34496.6 hPa SSE 15 km/h 15 km/h 32 % 0 mm
13:55 -3.2 °C -12.9 °C 34496.6 hPa North 15 km/h 15 km/h 33 % 0 mm
14:00 -3 °C -12.8 °C 34496.6 hPa SW 15 km/h 15 km/h 33 % 0 mm
14:05 -2.8 °C -12.8 °C 34496.6 hPa SSE 9 km/h 9 km/h 32 % 0 mm
14:10 -2.6 °C -12.7 °C 34496.6 hPa South 11.9 km/h 11.9 km/h 32 % 0 mm
14:15 -2.5 °C -12.6 °C 34496.6 hPa ESE 12.2 km/h 12.2 km/h 32 % 0 mm
14:20 -2.5 °C -12.6 °C 34496.6 hPa SSW 11.9 km/h 11.9 km/h 32 % 0 mm
14:25 -2.7 °C -12.8 °C 34496.6 hPa ESE 20.9 km/h 20.9 km/h 32 % 0 mm
14:30 -3.2 °C -12.9 °C 34496.6 hPa ENE 15 km/h 15 km/h 33 % 0 mm
14:35 -3.2 °C -12.4 °C 34496.6 hPa SE 17.9 km/h 17.9 km/h 35 % 0 mm
14:40 -3.2 °C -11.8 °C 34496.6 hPa South 20.9 km/h 20.9 km/h 38 % 0 mm
14:45 -3.2 °C -11.6 °C 34496.6 hPa ENE 38.8 km/h 38.8 km/h 39 % 0 mm
14:50 -3.4 °C -11.7 °C 34496.6 hPa SSE 23.8 km/h 23.8 km/h 39 % 0 mm
14:55 -3.2 °C -11.3 °C 34496.6 hPa ESE 17.9 km/h 17.9 km/h 40 % 0 mm
15:00 -3.1 °C -11.3 °C 34496.6 hPa WSW 26.9 km/h 26.9 km/h 40 % 0 mm
15:05 -3.3 °C -11.3 °C 34496.6 hPa SW 15 km/h 15 km/h 41 % 0 mm
15:10 -3.1 °C -11 °C 34496.6 hPa SSE 20.9 km/h 20.9 km/h 41 % 0 mm
15:11 -3.2 °C -11.1 °C 34496.6 hPa South 20.9 km/h 20.9 km/h 41 % 0 mm
15:16 -3.5 °C -11.2 °C 34462.7 hPa East 22.5 km/h 22.5 km/h 42 % 0 mm
15:21 -3.4 °C -11.1 °C 34462.7 hPa South 17.9 km/h 17.9 km/h 42 % 0 mm
15:26 -3.4 °C -10.9 °C 34462.7 hPa ESE 15 km/h 15 km/h 43 % 0 mm
15:27 -3.4 °C -10.9 °C 34462.7 hPa East 15.6 km/h 15.6 km/h 43 % 0 mm
15:32 -3.8 °C -11.3 °C 34462.7 hPa ESE 29.8 km/h 29.8 km/h 43 % 0 mm
15:37 -4 °C -11.3 °C 34462.7 hPa ESE 15 km/h 15 km/h 44 % 0 mm
15:42 -4.1 °C -11.3 °C 34462.7 hPa SE 17.9 km/h 17.9 km/h 44 % 0 mm
15:47 -4.1 °C -11.2 °C 34496.6 hPa ENE 35.7 km/h 35.7 km/h 45 % 0 mm
15:52 -4.1 °C -11 °C 34496.6 hPa East 23.8 km/h 23.8 km/h 46 % 0 mm
15:57 -4.1 °C -11 °C 34496.6 hPa ESE 20.9 km/h 20.9 km/h 46 % 0 mm
15:58 -4.1 °C -11 °C 34496.6 hPa SE 15 km/h 15 km/h 46 % 0 mm
16:03 -4.1 °C -11 °C 34462.7 hPa SE 20.3 km/h 20.3 km/h 46 % 0 mm
16:08 -4.3 °C -10.9 °C 34462.7 hPa South 23.8 km/h 23.8 km/h 47 % 0 mm
16:13 -4.2 °C -10.9 °C 34462.7 hPa ENE 9 km/h 9.3 km/h 47 % 0 mm
16:18 -4.4 °C -11.1 °C 34462.7 hPa ESE 23.8 km/h 23.8 km/h 47 % 0 mm
16:23 -4.5 °C -11 °C 34462.7 hPa ESE 20.9 km/h 20.9 km/h 48 % 0 mm
16:24 -4.5 °C -11 °C 34462.7 hPa SE 26.9 km/h 26.9 km/h 48 % 0 mm
16:29 -4.4 °C -10.9 °C 34462.7 hPa SSE 15 km/h 15 km/h 48 % 0 mm
16:34 -4.4 °C -10.9 °C 34462.7 hPa South 17.9 km/h 17.9 km/h 48 % 0 mm
16:39 -4.4 °C -10.9 °C 34462.7 hPa East 9 km/h 9 km/h 48 % 0 mm
16:44 -4.3 °C -10.8 °C 34462.7 hPa SSE 17.9 km/h 17.9 km/h 48 % 0 mm
16:49 -4.4 °C -10.9 °C 34462.7 hPa ESE 14.5 km/h 14.5 km/h 48 % 0 mm
16:54 -4.5 °C -11 °C 34462.7 hPa SE 11.9 km/h 11.9 km/h 48 % 0 mm
16:59 -4.5 °C -10.8 °C 34462.7 hPa ESE 17.9 km/h 17.9 km/h 49 % 0 mm
17:04 -4.5 °C -10.8 °C 34462.7 hPa SSE 18.3 km/h 18.3 km/h 49 % 0 mm
17:09 -4.5 °C -10.8 °C 34462.7 hPa SW 11.9 km/h 11.9 km/h 49 % 0 mm
17:14 -4.5 °C -10.8 °C 34462.7 hPa ESE 9 km/h 9 km/h 49 % 0 mm
17:19 -4.4 °C -10.8 °C 34462.7 hPa East 7.6 km/h 7.6 km/h 49 % 0 mm
17:24 -4.4 °C -10.7 °C 34462.7 hPa SW 9 km/h 9 km/h 49 % 0 mm
17:29 -4.4 °C -10.6 °C 34462.7 hPa ESE 9 km/h 9.3 km/h 50 % 0 mm
17:34 -4.6 °C -10.7 °C 34462.7 hPa NE 20.9 km/h 20.9 km/h 50 % 0 mm
17:39 -4.5 °C -10.7 °C 34462.7 hPa ESE 19.2 km/h 19.2 km/h 50 % 0 mm
17:44 -4.4 °C -10.6 °C 34462.7 hPa SSE 15 km/h 15 km/h 50 % 0 mm
17:49 -4.5 °C -10.7 °C 34496.6 hPa ESE 17.9 km/h 17.9 km/h 50 % 0 mm
17:54 -4.5 °C -10.7 °C 34496.6 hPa ESE 17.9 km/h 17.9 km/h 50 % 0 mm
17:59 -4.5 °C -10.7 °C 34462.7 hPa ESE 20.3 km/h 20.3 km/h 50 % 0 mm
18:04 -4.4 °C -10.6 °C 34462.7 hPa ESE 20.9 km/h 20.9 km/h 50 % 0 mm
18:09 -4.4 °C -10.6 °C 34462.7 hPa ESE 17.9 km/h 17.9 km/h 50 % 0 mm
18:14 -4.5 °C -10.7 °C 34462.7 hPa South 15 km/h 15 km/h 50 % 0 mm
18:19 -4.7 °C -10.8 °C 34496.6 hPa ESE 23.8 km/h 23.8 km/h 50 % 0 mm
18:24 -4.6 °C -10.7 °C 34496.6 hPa SSE 9.8 km/h 10.3 km/h 50 % 0 mm
18:29 -4.6 °C -10.7 °C 34496.6 hPa South 15 km/h 15 km/h 50 % 0 mm
18:34 -4.7 °C -10.8 °C 34496.6 hPa NE 17.9 km/h 17.9 km/h 50 % 0 mm
18:39 -4.8 °C -10.9 °C 34496.6 hPa ESE 23.8 km/h 23.8 km/h 50 % 0 mm
18:44 -4.8 °C -10.9 °C 34462.7 hPa ESE 17.9 km/h 17.9 km/h 50 % 0 mm
18:49 -4.8 °C -10.7 °C 34462.7 hPa East 30.6 km/h 30.6 km/h 51 % 0 mm
18:54 -4.8 °C -10.6 °C 34462.7 hPa East 23.8 km/h 23.8 km/h 52 % 0 mm
18:59 -4.9 °C -10.6 °C 34462.7 hPa ESE 26.4 km/h 26.4 km/h 53 % 0 mm
19:04 -5 °C -10.3 °C 34496.6 hPa SE 23.8 km/h 23.8 km/h 55 % 0 mm
19:09 -5.1 °C -10.3 °C 34496.6 hPa ESE 20.9 km/h 20.9 km/h 55 % 0 mm
19:14 -5.1 °C -10.2 °C 34496.6 hPa ESE 23.8 km/h 23.8 km/h 56 % 0 mm
19:19 -5 °C -10.3 °C 34462.7 hPa East 15 km/h 15 km/h 55 % 0 mm
19:20 -6.8 °C -10.4 °C 34601.5 hPa NE 5.1 km/h 5.1 km/h 66 % 0 mm
19:24 -5 °C -10.3 °C 34462.7 hPa SSE 9.3 km/h 9.3 km/h 55 % 0 mm
19:26 -5.1 °C -10.3 °C 34462.7 hPa South 20.9 km/h 20.9 km/h 55 % 0 mm
19:30 -6.8 °C -10.3 °C 34601.5 hPa NE 5.1 km/h 7.7 km/h 67 % 0 mm
19:31 -5.1 °C -10.4 °C 34496.6 hPa SE 15 km/h 15 km/h 55 % 0 mm
19:36 -5.1 °C -10.4 °C 34496.6 hPa ESE 16.1 km/h 16.1 km/h 55 % 0 mm
19:40 -6.8 °C -10.3 °C 34567.7 hPa NNE 5.1 km/h 7.7 km/h 67 % 0 mm
19:41 -5.2 °C -10.4 °C 34496.6 hPa SSE 15 km/h 15 km/h 55 % 0 mm
19:46 -5.2 °C -10.3 °C 34496.6 hPa SSE 22 km/h 22 km/h 56 % 0 mm
19:50 -6.9 °C -10.2 °C 34601.5 hPa NNE 5.1 km/h 7.7 km/h 68 % 0 mm
19:51 -5.2 °C -10.3 °C 34496.6 hPa ESE 11.9 km/h 11.9 km/h 56 % 0 mm
19:56 -5.3 °C -10.4 °C 34496.6 hPa SE 25.4 km/h 25.4 km/h 56 % 0 mm
20:00 -6.9 °C -10.1 °C 34601.5 hPa NE 5.1 km/h 7.7 km/h 69 % 0 mm
20:01 -5.4 °C -10.3 °C 34496.6 hPa ESE 20.9 km/h 20.9 km/h 57 % 0 mm
20:06 -5.4 °C -10.4 °C 34496.6 hPa ESE 17.9 km/h 17.9 km/h 57 % 0 mm
20:10 -6.9 °C -10.1 °C 34601.5 hPa NNE 2.6 km/h 5.1 km/h 69 % 0 mm
20:11 -5.4 °C -10.4 °C 34496.6 hPa ESE 6 km/h 7.6 km/h 57 % 0 mm
20:16 -5.4 °C -10.2 °C 34496.6 hPa ESE 11.9 km/h 11.9 km/h 58 % 0 mm
20:20 -6.9 °C -10.2 °C 34601.5 hPa NNE 5.1 km/h 5.1 km/h 69 % 0 mm
20:21 -5.5 °C -10.4 °C 34496.6 hPa ESE 17.9 km/h 17.9 km/h 57 % 0 mm
20:26 -5.6 °C -10.5 °C 34496.6 hPa ESE 16.1 km/h 16.1 km/h 57 % 0 mm
20:30 -7.1 °C -10.2 °C 34601.5 hPa NNE 2.6 km/h 5.1 km/h 70 % 0 mm
20:31 -5.6 °C -10.4 °C 34496.6 hPa ESE 20.9 km/h 20.9 km/h 58 % 0 mm
20:36 -5.6 °C -10.3 °C 34496.6 hPa ENE 11.9 km/h 11.9 km/h 59 % 0 mm
20:40 -7.1 °C -10.2 °C 34567.7 hPa NNE 2.6 km/h 5.1 km/h 70 % 0 mm
20:41 -5.6 °C -10.3 °C 34496.6 hPa ENE 25.4 km/h 25.4 km/h 59 % 0 mm
20:46 -5.7 °C -10.3 °C 34496.6 hPa ESE 23.8 km/h 23.8 km/h 59 % 0 mm
20:50 -7.2 °C -10.2 °C 34567.7 hPa Calm   2.6 km/h 71 % 0 mm
20:51 -5.7 °C -10.4 °C 34496.6 hPa East 17.9 km/h 17.9 km/h 59 % 0 mm
20:56 -5.7 °C -10.4 °C 34496.6 hPa ESE 15 km/h 15 km/h 59 % 0 mm
21:00 -7.2 °C -10.2 °C 34567.7 hPa Calm   2.6 km/h 71 % 0 mm
21:01 -5.7 °C -10.4 °C 34533.8 hPa ESE 18.3 km/h 18.3 km/h 59 % 0 mm
21:06 -5.8 °C -10.3 °C 34533.8 hPa ESE 15 km/h 15 km/h 60 % 0 mm
21:10 -7.3 °C -10.2 °C 34567.7 hPa Calm   2.6 km/h 72 % 0 mm
21:11 -5.8 °C -10.3 °C 34533.8 hPa ESE 15 km/h 15 km/h 60 % 0 mm
21:16 -5.8 °C -10.3 °C 34533.8 hPa NE 17.9 km/h 17.9 km/h 60 % 0 mm
21:20 -7.3 °C -10.1 °C 34567.7 hPa Calm     73 % 0 mm
21:21 -5.8 °C -10.3 °C 34533.8 hPa East 9.3 km/h 9.3 km/h 60 % 0 mm
21:26 -5.8 °C -10.2 °C 34533.8 hPa SE 15.6 km/h 15.6 km/h 61 % 0 mm
21:30 -7.3 °C -10.1 °C 34567.7 hPa NNE 5.1 km/h 5.1 km/h 73 % 0 mm
21:31 -5.8 °C -10.2 °C 34496.6 hPa ESE 9.3 km/h 9.3 km/h 61 % 0 mm
21:36 -5.8 °C -10.2 °C 34496.6 hPa SE 9.8 km/h 9.8 km/h 61 % 0 mm
21:40 -7.3 °C -10.1 °C 34567.7 hPa NNE 5.1 km/h 7.7 km/h 73 % 0 mm
21:41 -5.8 °C -10.2 °C 34496.6 hPa SE 9 km/h 9 km/h 61 % 0 mm
21:46 -5.9 °C -10.2 °C 34533.8 hPa ESE 15 km/h 15 km/h 61 % 0 mm
21:50 -7.4 °C -10.1 °C 34533.8 hPa NNE 5.1 km/h 5.1 km/h 73 % 0 mm
21:51 -5.9 °C -10.2 °C 34533.8 hPa ENE 9 km/h 9 km/h 61 % 0 mm
21:56 -5.9 °C -10.2 °C 34533.8 hPa ESE 17.9 km/h 17.9 km/h 61 % 0 mm
22:00 -7.4 °C -10.2 °C 34533.8 hPa NNE 2.6 km/h 5.1 km/h 73 % 0 mm
22:01 -5.9 °C -10.3 °C 34533.8 hPa NE 15 km/h 15 km/h 61 % 0 mm
22:06 -6 °C -10.3 °C 34533.8 hPa ESE 11.9 km/h 11.9 km/h 61 % 0 mm
22:10 -7.4 °C -10.2 °C 34567.7 hPa Calm   5.1 km/h 73 % 0 mm
22:11 -6 °C -10.3 °C 34533.8 hPa East 15 km/h 15 km/h 61 % 0 mm
22:16 -6 °C -10.2 °C 34533.8 hPa East 8.5 km/h 8.5 km/h 62 % 0 mm
22:20 -7.6 °C -10.2 °C 34567.7 hPa Calm     74 % 0 mm
22:21 -6.1 °C -10.2 °C 34533.8 hPa ESE 9 km/h 9 km/h 62 % 0 mm
22:26 -6.1 °C -10.2 °C 34533.8 hPa ESE 9.8 km/h 9.8 km/h 62 % 0 mm
22:30 -7.6 °C -10.2 °C 34567.7 hPa Calm     74 % 0 mm
22:31 -6.1 °C -10.3 °C 34533.8 hPa ENE 7.6 km/h 7.6 km/h 62 % 0 mm
22:36 -6.1 °C -10.3 °C 34533.8 hPa ESE 11.9 km/h 11.9 km/h 62 % 0 mm
22:38 -6.1 °C -10.3 °C 34533.8 hPa SE 9 km/h 9 km/h 62 % 0 mm
22:40 -7.6 °C -10.1 °C 34567.7 hPa Calm   5.1 km/h 75 % 0 mm
22:43 -6.2 °C -10.4 °C 34533.8 hPa ESE 9 km/h 9 km/h 62 % 0 mm
22:48 -6.2 °C -10.4 °C 34533.8 hPa ENE 6 km/h 6 km/h 62 % 0 mm
22:50 -7.6 °C -10.1 °C 34567.7 hPa Calm   5.1 km/h 75 % 0 mm
22:53 -6.3 °C -10.4 °C 34533.8 hPa NE 6 km/h 6 km/h 62 % 0 mm
22:58 -6.3 °C -10.7 °C 34533.8 hPa ENE 11.9 km/h 11.9 km/h 61 % 0 mm
23:00 -7.6 °C -10.1 °C 34567.7 hPa NNE 2.6 km/h 2.6 km/h 75 % 0 mm
23:03 -6.4 °C -10.7 °C 34567.7 hPa ENE 3.1 km/h 3.1 km/h 61 % 0 mm
23:08 -6.4 °C -10.6 °C 34567.7 hPa NE 6 km/h 6 km/h 62 % 0 mm
23:10 -7.6 °C -10.1 °C 34533.8 hPa NNE 2.6 km/h 5.1 km/h 75 % 0 mm
23:13 -6.4 °C -10.5 °C 34567.7 hPa ENE 6 km/h 6 km/h 63 % 0 mm
23:18 -6.4 °C -10.5 °C 34567.7 hPa East 9 km/h 9 km/h 63 % 0 mm
23:20 -7.6 °C -10.1 °C 34533.8 hPa NNE 2.6 km/h 5.1 km/h 75 % 0 mm
23:23 -6.6 °C -10.6 °C 34567.7 hPa ENE 6 km/h 6 km/h 63 % 0 mm
23:28 -6.6 °C -10.6 °C 34567.7 hPa ENE 6 km/h 6 km/h 63 % 0 mm
23:30 -7.7 °C -10.2 °C 34533.8 hPa NNE 2.6 km/h 5.1 km/h 75 % 0 mm
23:33 -6.6 °C -10.7 °C 34567.7 hPa NE 6 km/h 6 km/h 63 % 0 mm
23:38 -6.6 °C -10.7 °C 34567.7 hPa ENE 6 km/h 6 km/h 63 % 0 mm
23:40 -7.8 °C -10.2 °C 34533.8 hPa NNE 2.6 km/h 5.1 km/h 76 % 0 mm
23:43 -6.6 °C -10.7 °C 34567.7 hPa NE 7.6 km/h 7.6 km/h 63 % 0 mm
23:48 -6.7 °C -10.7 °C 34567.7 hPa NNE 6.3 km/h 6.3 km/h 63 % 0 mm
23:50 -7.8 °C -10.2 °C 34533.8 hPa Calm   2.6 km/h 76 % 0 mm
23:53 -6.6 °C -10.7 °C 34567.7 hPa ENE 6.3 km/h 6.3 km/h 63 % 0 mm
23:58 -6.6 °C -10.7 °C 34567.7 hPa NNE 6.3 km/h 6.3 km/h 63 % 0 mm
Meteo Sesrovires
Elogis d' Weather Underground - 1.75 mb

Guio original per  Jim McMurry - jmcmurry@mwt.net Adaptat per a la plantilla per  Wim van der Kuil - Leuven-Template.eu

Trobareu la nostra informacio del temps tambe a:

Weather Underground

AWEKAS